FVKB

Kariba International Airport

Kariba, Zimbabwe
METAR FVKB 200900Z 27006KT CAVOK 29/12 Q1020
Observed Flight Rules
Aug-20 @ 09:00 UTC (7 hours ago) Visual Flight Rules
Wind Visibility Clouds
270° at 6 knots 10,000+ meters
  • Clear skies
Temperatures Readings
Current 29°C / 84°F
Dewpoint 12°C / 54°F
Humidity 35%
Altimeter 30.12" Hg
Pressure 1020 hPa
Elevation 518
METAR FVKB 200900Z 27006KT CAVOK 29/12 Q1020
Observed Flight Rules
Aug-20 @ 09:00 UTC
(7 hours ago)
VFR
Wind Visibility
270° at 6 knots 10,000+ meters
Clouds
  • Clear skies
Temperature Dewpoint
29°C / 84°F 12°C / 54°F
Humidity Altimeter Pressure
35% 30.12" Hg 1020 hPa